Time;durP1;ratioP1;P1;durP2;ratioP2;P2;SDS_P1;SDS_P2;PMS_P1;PMS_P2;Temp;Humidity;BMP_temperature;BMP_pressure;BME280_temperature;BME280_humidity;BME280_pressure;Samples;Min_cycle;Max_cycle;Signal;HPM_P1;HPM_P2
2023/08/10 00:01:51;;;;;;;6.90;2.10;;;;;;;14.04;100.00;154915.72;5053629;28;20029;-73
2023/08/10 00:04:16;;;;;;;3.47;2.20;;;;;;;14.07;100.00;154923.47;5020307;28;20357;-74
2023/08/10 00:06:42;;;;;;;6.63;1.93;;;;;;;14.14;100.00;154942.94;5020181;28;20918;-74
2023/08/10 00:09:08;;;;;;;5.20;2.07;;;;;;;14.18;100.00;153312.22;5033531;28;20133;-74
2023/08/10 00:11:36;;;;;;;13.43;2.23;;;;;;;14.13;100.00;151822.28;5056372;28;20044;-74
2023/08/10 00:14:03;;;;;;;3.33;2.08;;;;;;;14.18;100.00;139974.38;5023075;28;20025;-74
2023/08/10 00:16:30;;;;;;;5.03;1.90;;;;;;;14.17;100.00;134990.66;5025121;28;20033;-74
2023/08/10 00:18:56;;;;;;;5.07;2.15;;;;;;;14.20;100.00;139979.13;5024784;28;20351;-75
2023/08/10 00:21:21;;;;;;;4.50;2.33;;;;;;;14.22;100.00;146095.41;5025269;28;20026;-75
2023/08/10 00:23:47;;;;;;;4.20;2.33;;;;;;;14.26;100.00;143555.53;5019892;28;20026;-75
2023/08/10 00:26:12;;;;;;;17.33;2.10;;;;;;;14.24;100.00;151691.34;5022604;28;20511;-74
2023/08/10 00:28:38;;;;;;;5.57;1.70;;;;;;;14.34;100.00;154993.63;5021694;28;20077;-73
2023/08/10 00:31:04;;;;;;;4.13;2.20;;;;;;;14.38;100.00;155004.03;5026896;28;20037;-73
2023/08/10 00:33:30;;;;;;;3.60;2.15;;;;;;;14.40;100.00;155009.25;5024237;28;20029;-73
2023/08/10 00:35:56;;;;;;;2.67;1.98;;;;;;;14.43;100.00;153749.31;5027624;28;20204;-73
2023/08/10 00:38:21;;;;;;;6.37;2.00;;;;;;;14.43;100.00;143952.91;5024010;28;20101;-73
2023/08/10 00:40:46;;;;;;;7.93;2.87;;;;;;;14.42;100.00;145020.19;5025255;28;20115;-73
2023/08/10 00:43:12;;;;;;;3.87;1.90;;;;;;;14.42;100.00;147076.78;5024692;28;20037;-74
2023/08/10 00:45:38;;;;;;;4.33;2.50;;;;;;;14.42;100.00;141813.16;5022065;28;20030;-73
2023/08/10 00:48:03;;;;;;;6.87;2.13;;;;;;;14.41;100.00;145017.78;5025944;28;20128;-73
2023/08/10 00:50:29;;;;;;;6.17;2.60;;;;;;;14.36;100.00;146724.78;5022169;28;20112;-73
2023/08/10 00:52:55;;;;;;;5.07;1.93;;;;;;;14.34;100.00;151631.53;5025006;28;20025;-73
2023/08/10 00:55:21;;;;;;;3.83;2.17;;;;;;;14.32;100.00;136804.63;5015992;28;20191;-73
2023/08/10 00:57:46;;;;;;;6.77;2.00;;;;;;;14.35;100.00;122245.91;5056541;28;20025;-74
2023/08/10 01:00:13;;;;;;;5.00;2.00;;;;;;;14.39;100.00;116938.16;5017813;28;20044;-74
2023/08/10 01:02:41;;;;;;;4.85;2.30;;;;;;;14.42;100.00;113403.75;5038840;28;20026;-73
2023/08/10 01:05:11;;;;;;;7.60;2.20;;;;;;;14.47;100.00;116245.47;5021145;28;20502;-72
2023/08/10 01:07:48;;;;;;;9.45;1.90;;;;;;;14.50;100.00;118023.53;5025273;28;20026;-73
2023/08/10 01:10:25;;;;;;;5.22;2.10;;;;;;;14.54;100.00;115904.91;5023991;28;20423;-73
2023/08/10 01:13:04;;;;;;;6.90;2.25;;;;;;;14.60;100.00;112023.19;5027678;28;20033;-73
2023/08/10 01:15:37;;;;;;;4.80;2.10;;;;;;;14.54;100.00;111657.19;5024196;28;20037;-73
2023/08/10 01:18:09;;;;;;;6.25;2.25;;;;;;;14.55;100.00;114491.41;5025275;28;20033;-73
2023/08/10 01:20:35;;;;;;;6.32;1.83;;;;;;;14.57;100.00;114494.28;5023993;28;20037;-73
2023/08/10 01:23:35;;;;;;;6.00;2.40;;;;;;;14.53;100.00;115548.84;5021803;28;20099;-73
2023/08/10 01:26:01;;;;;;;3.88;2.20;;;;;;;14.43;100.00;117655.44;5021180;28;20033;-73
2023/08/10 01:28:27;;;;;;;5.78;2.78;;;;;;;14.43;100.00;118718.31;5026150;28;20497;-73
2023/08/10 01:30:52;;;;;;;3.57;2.20;;;;;;;14.44;100.00;113053.66;5017707;28;20063;-73
2023/08/10 01:33:19;;;;;;;10.30;2.40;;;;;;;14.30;100.00;116212.41;5021578;28;20057;-74
2023/08/10 01:35:44;;;;;;;8.20;2.17;;;;;;;14.32;100.00;111263.38;5021816;28;20022;-73
2023/08/10 01:38:10;;;;;;;4.50;1.73;;;;;;;14.24;100.00;101359.19;5022261;28;20037;-73
2023/08/10 01:40:36;;;;;;;5.90;2.25;;;;;;;14.24;100.00;90087.69;5028048;28;20032;-73
2023/08/10 01:43:02;;;;;;;7.00;2.57;;;;;;;14.23;100.00;88327.84;5029928;28;20116;-73
2023/08/10 01:45:28;;;;;;;3.85;2.13;;;;;;;14.18;100.00;89375.97;5031642;28;20294;-73
2023/08/10 01:48:13;;;;;;;5.28;2.03;;;;;;;14.15;100.00;85154.06;5026777;28;20575;-72
2023/08/10 01:50:44;;;;;;;5.90;2.35;;;;;;;14.15;100.00;75681.09;5022590;28;20029;-73
2023/08/10 01:53:15;;;;;;;7.63;2.70;;;;;;;14.06;100.00;73217.09;5028610;28;20395;-73
2023/08/10 01:55:41;;;;;;;4.78;2.20;;;;;;;14.04;100.00;67965.75;5029861;28;20030;-73
2023/08/10 01:58:07;;;;;;;4.05;2.35;;;;;;;14.06;100.00;62027.97;5031991;28;20025;-74
2023/08/10 02:00:37;;;;;;;3.63;2.20;;;;;;;13.96;100.00;65509.78;5027226;28;20034;-74
2023/08/10 02:03:06;;;;;;;7.30;2.40;;;;;;;13.95;100.00;66557.69;5059178;28;20376;-74
2023/08/10 02:05:32;;;;;;;3.72;2.03;;;;;;;13.84;100.00;63401.44;5027526;28;20030;-73
2023/08/10 02:07:57;;;;;;;5.50;2.60;;;;;;;13.81;100.00;59908.09;5026105;28;20030;-73
2023/08/10 02:10:23;;;;;;;6.40;2.10;;;;;;;13.83;100.00;58514.38;5024295;28;20298;-73
2023/08/10 02:12:48;;;;;;;3.03;2.27;;;;;;;13.81;100.00;55375.00;5027517;28;20025;-73
2023/08/10 02:15:14;;;;;;;3.10;2.10;;;;;;;13.79;100.00;53631.28;5023592;28;20029;-73
2023/08/10 02:17:41;;;;;;;5.97;2.17;;;;;;;13.71;100.00;55366.13;5022984;28;20018;-73
2023/08/10 02:20:13;;;;;;;;;;;;;;;13.77;100.00;53281.66;5024969;28;20478;-73
2023/08/10 02:22:45;;;;;;;5.88;3.28;;;;;;;13.75;100.00;52931.16;5026149;28;20374;-73
2023/08/10 02:25:10;;;;;;;5.35;2.72;;;;;;;13.72;100.00;53625.38;5033998;28;20439;-73
2023/08/10 02:27:37;;;;;;;3.57;2.30;;;;;;;13.68;100.00;56059.69;5027698;28;20034;-73
2023/08/10 02:30:03;;;;;;;7.25;2.50;;;;;;;13.64;100.00;56055.88;5053020;28;20037;-73
2023/08/10 02:32:32;;;;;;;5.10;2.60;;;;;;;13.59;100.00;58490.66;5017978;28;20072;-72
2023/08/10 02:34:57;;;;;;;3.80;2.47;;;;;;;13.57;100.00;56049.72;5014720;28;20494;-72
2023/08/10 02:37:23;;;;;;;4.00;2.90;;;;;;;13.56;100.00;55003.75;5018640;28;20026;-73
2023/08/10 02:39:48;;;;;;;8.93;2.23;;;;;;;13.52;100.00;54651.34;5028269;28;20482;-72
2023/08/10 02:42:14;;;;;;;9.30;2.53;;;;;;;13.50;100.00;56043.09;5024928;28;20079;-75
2023/08/10 02:44:39;;;;;;;3.70;2.10;;;;;;;13.45;100.00;59871.19;5028345;28;20501;-73
2023/08/10 02:47:05;;;;;;;4.97;2.37;;;;;;;13.44;100.00;61265.00;5021372;28;20026;-73
2023/08/10 02:49:30;;;;;;;3.73;2.40;;;;;;;13.43;100.00;60915.75;5024737;28;20040;-73
2023/08/10 02:51:56;;;;;;;8.33;2.27;;;;;;;13.44;100.00;60568.03;5023162;28;20033;-74
2023/08/10 02:54:22;;;;;;;6.57;2.27;;;;;;;13.43;100.00;60567.03;5053457;28;20030;-74
2023/08/10 02:56:49;;;;;;;3.23;1.90;;;;;;;13.45;100.00;60568.56;5021636;28;20041;-74
2023/08/10 02:59:14;;;;;;;6.72;2.17;;;;;;;13.43;100.00;61263.97;5024686;28;20495;-74
2023/08/10 03:01:41;;;;;;;3.63;2.03;;;;;;;13.42;100.00;63704.97;5029584;28;20013;-74
2023/08/10 03:04:06;;;;;;;4.65;1.98;;;;;;;13.40;100.00;63353.88;5023688;28;20064;-74
2023/08/10 03:06:32;;;;;;;6.70;2.27;;;;;;;13.38;100.00;64399.19;5022621;28;20064;-74
2023/08/10 03:08:58;;;;;;;5.97;2.13;;;;;;;13.38;100.00;65794.91;5030346;28;20429;-75
2023/08/10 03:11:23;;;;;;;10.17;2.77;;;;;;;13.38;100.00;67890.25;5025943;28;20125;-74
2023/08/10 03:13:49;;;;;;;5.87;2.50;;;;;;;13.42;100.00;65450.22;5026946;28;20038;-74
2023/08/10 03:16:14;;;;;;;5.03;2.50;;;;;;;13.37;100.00;63350.69;5029193;28;20076;-74
2023/08/10 03:18:39;;;;;;;3.73;2.80;;;;;;;13.41;100.00;59519.03;5023268;28;20387;-74
2023/08/10 03:21:05;;;;;;;5.60;3.13;;;;;;;13.47;100.00;54995.41;5023149;28;20036;-74
2023/08/10 03:23:32;;;;;;;9.23;3.77;;;;;;;13.54;100.00;49780.75;5022989;28;20036;-74
2023/08/10 03:25:58;;;;;;;5.53;2.78;;;;;;;13.51;100.00;45954.31;5026853;28;20030;-75
2023/08/10 03:28:23;;;;;;;3.83;2.73;;;;;;;13.49;100.00;44910.53;5017355;28;20060;-74
2023/08/10 03:30:49;;;;;;;7.63;3.17;;;;;;;13.43;100.00;46295.47;5051902;28;20116;-74
2023/08/10 03:33:14;;;;;;;8.90;2.93;;;;;;;13.44;100.00;44906.72;5021655;28;20017;-73
2023/08/10 03:35:39;;;;;;;11.97;2.60;;;;;;;13.36;100.00;46637.81;5020967;28;20037;-75
2023/08/10 03:38:05;;;;;;;13.43;3.30;;;;;;;13.31;100.00;46633.84;5023299;28;20025;-74
2023/08/10 03:40:30;;;;;;;3.53;2.80;;;;;;;13.37;100.00;45249.06;5025265;28;20025;-74
2023/08/10 03:42:56;;;;;;;4.60;2.43;;;;;;;13.32;100.00;46982.06;5023509;28;20514;-74
2023/08/10 03:45:21;;;;;;;6.60;2.70;;;;;;;13.33;100.00;48024.94;5027472;28;20051;-74
2023/08/10 03:47:47;;;;;;;6.03;2.90;;;;;;;13.33;100.00;46635.00;5023637;28;20036;-74
2023/08/10 03:50:12;;;;;;;6.13;2.73;;;;;;;13.26;100.00;48019.66;5024374;28;20036;-75
2023/08/10 03:52:39;;;;;;;8.27;2.57;;;;;;;13.21;100.00;52187.03;5022902;28;20026;-74
2023/08/10 03:55:04;;;;;;;3.17;2.45;;;;;;;13.24;100.00;51842.28;5026798;28;20037;-75
2023/08/10 03:57:30;;;;;;;6.10;2.67;;;;;;;13.22;100.00;51492.28;5027378;28;20499;-73
2023/08/10 03:59:55;;;;;;;7.60;2.73;;;;;;;13.23;100.00;51145.41;5018676;28;20107;-73
2023/08/10 04:02:22;;;;;;;4.43;2.90;;;;;;;13.28;100.00;46978.47;5022061;28;20029;-74
2023/08/10 04:04:48;;;;;;;6.80;2.65;;;;;;;13.27;100.00;46630.25;5055782;28;20025;-74
2023/08/10 04:07:13;;;;;;;3.87;2.93;;;;;;;13.24;100.00;45933.22;5026132;28;20041;-74
2023/08/10 04:09:44;;;;;;;7.37;2.97;;;;;;;13.24;100.00;45586.28;5029050;28;20046;-73
2023/08/10 04:12:10;;;;;;;3.50;3.20;;;;;;;13.23;100.00;45237.88;5024889;28;20486;-73
2023/08/10 04:14:35;;;;;;;7.07;3.20;;;;;;;13.24;100.00;45238.66;5022260;28;20041;-73
2023/08/10 04:17:01;;;;;;;6.03;3.70;;;;;;;13.20;100.00;43846.94;5028666;28;20103;-73
2023/08/10 04:19:27;;;;;;;6.03;3.43;;;;;;;13.16;100.00;45232.50;5023581;28;20037;-73
2023/08/10 04:21:53;;;;;;;12.05;4.03;;;;;;;13.21;100.00;42459.50;5023516;28;20034;-73
2023/08/10 04:24:18;;;;;;;5.43;3.90;;;;;;;13.20;100.00;42458.75;5058622;28;20052;-74
2023/08/10 04:26:45;;;;;;;9.57;3.60;;;;;;;13.20;100.00;42459.13;5018349;28;20026;-73
2023/08/10 04:29:11;;;;;;;5.53;3.78;;;;;;;13.24;100.00;42462.03;5020757;28;20042;-72
2023/08/10 04:31:36;;;;;;;9.77;4.20;;;;;;;13.23;100.00;39685.97;5023381;28;20132;-73
2023/08/10 04:34:01;;;;;;;9.00;4.40;;;;;;;13.27;100.00;36915.78;5023869;28;20025;-73
2023/08/10 04:36:27;;;;;;;5.23;4.00;;;;;;;13.31;100.00;37958.09;5019265;28;20423;-74
2023/08/10 04:38:53;;;;;;;4.30;3.53;;;;;;;13.39;100.00;39350.00;5026970;28;20556;-74
2023/08/10 04:41:19;;;;;;;8.85;3.85;;;;;;;13.42;100.00;40392.63;5024359;28;20030;-74
2023/08/10 04:43:46;;;;;;;11.90;4.33;;;;;;;13.46;100.00;43172.28;5025719;28;20029;-73
2023/08/10 04:46:11;;;;;;;;;;;;;;;13.58;100.00;42833.50;5022908;28;20037;-74
2023/08/10 04:48:36;;;;;;;8.00;4.00;;;;;;;13.60;100.00;43876.81;5021398;28;19917;-73
2023/08/10 04:51:03;;;;;;;7.73;4.20;;;;;;;13.66;100.00;43881.31;5051820;28;20026;-73
2023/08/10 04:53:29;;;;;;;7.30;4.40;;;;;;;13.72;100.00;44928.13;5025509;28;20377;-74
2023/08/10 04:55:54;;;;;;;5.17;3.40;;;;;;;13.74;100.00;44929.66;5022456;28;20079;-73
2023/08/10 04:58:20;;;;;;;7.23;4.13;;;;;;;13.77;100.00;44584.81;5025204;28;20045;-74
2023/08/10 05:00:45;;;;;;;5.80;3.77;;;;;;;13.77;100.00;47713.06;5028385;28;20028;-74
2023/08/10 05:03:10;;;;;;;5.67;3.87;;;;;;;13.83;100.00;49457.31;5026911;28;20037;-72
2023/08/10 05:05:38;;;;;;;7.13;4.07;;;;;;;13.87;100.00;47025.59;5026763;28;20029;-73
2023/08/10 05:08:04;;;;;;;11.73;4.50;;;;;;;13.91;100.00;46681.03;5023519;28;20048;-73
2023/08/10 05:10:30;;;;;;;8.60;4.80;;;;;;;13.95;100.00;47032.00;5023769;28;20058;-73
2023/08/10 05:12:55;;;;;;;10.45;4.78;;;;;;;14.03;100.00;44256.56;5020143;28;20499;-73
2023/08/10 05:15:21;;;;;;;7.97;4.73;;;;;;;14.12;100.00;44263.72;5014227;28;20125;-74
2023/08/10 05:17:46;;;;;;;7.80;5.20;;;;;;;14.28;100.00;42189.84;5023986;28;20030;-74
2023/08/10 05:20:21;;;;;;;6.70;4.57;;;;;;;14.43;100.00;41852.63;5018234;28;20060;-78
2023/08/10 05:22:49;;;;;;;11.00;5.40;;;;;;;14.59;100.00;43603.00;5014443;28;20025;-72
2023/08/10 05:25:14;;;;;;;7.68;4.88;;;;;;;14.76;100.00;47097.16;5023521;28;20029;-74
2023/08/10 05:27:40;;;;;;;10.17;5.50;;;;;;;14.93;100.00;49550.09;5023794;28;20409;-73
2023/08/10 05:30:11;;;;;;;16.87;7.00;;;;;;;15.02;100.00;52696.19;5025356;28;20053;-75
2023/08/10 05:32:39;;;;;;;8.85;6.20;;;;;;;15.11;100.00;55497.34;5019439;28;20022;-74
2023/08/10 05:35:06;;;;;;;8.07;5.75;;;;;;;15.18;100.00;60396.44;5022364;28;20041;-74
2023/08/10 05:37:33;;;;;;;6.57;5.03;;;;;;;15.24;100.00;64951.44;5028223;28;20029;-73
2023/08/10 05:40:00;;;;;;;9.55;5.70;;;;;;;15.31;100.00;66009.72;5028308;28;20025;-73
2023/08/10 05:42:25;;;;;;;13.70;5.63;;;;;;;15.36;100.00;69519.59;5029261;28;20446;-73
2023/08/10 05:44:50;;;;;;;10.60;6.27;;;;;;;15.45;100.00;74793.16;5021315;28;20021;-73
2023/08/10 05:47:16;;;;;;;10.57;5.93;;;;;;;15.54;100.00;82536.56;5023140;28;20048;-73
2023/08/10 05:49:42;;;;;;;14.03;5.83;;;;;;;15.65;100.00;92064.06;5026137;28;20030;-74
2023/08/10 05:52:08;;;;;;;7.22;5.47;;;;;;;15.79;100.00;101976.25;5020451;28;20133;-73
2023/08/10 05:54:34;;;;;;;11.10;6.93;;;;;;;15.87;100.00;114388.81;5022346;28;20048;-73
2023/08/10 05:56:59;;;;;;;12.20;7.23;;;;;;;15.94;100.00;130044.81;5018207;28;20112;-73
2023/08/10 05:59:24;;;;;;;12.73;6.83;;;;;;;16.00;100.00;136118.22;5023161;28;20026;-74
2023/08/10 06:01:50;;;;;;;10.13;7.50;;;;;;;16.12;100.00;141502.53;5023531;28;20033;-73
2023/08/10 06:04:15;;;;;;;21.17;8.83;;;;;;;16.23;100.00;154328.13;5021366;28;20033;-73
2023/08/10 06:06:41;;;;;;;17.50;9.03;;;;;;;16.34;100.00;155513.47;5020654;28;20363;-73
2023/08/10 06:09:08;;;;;;;15.53;9.27;;;;;;;16.47;100.00;155547.34;5023409;28;20069;-72
2023/08/10 06:11:33;;;;;;;;;;;;;;;16.49;100.00;155552.56;5022763;28;20088;-73
2023/08/10 06:13:59;;;;;;;14.32;9.90;;;;;;;16.48;100.00;155549.97;5018807;28;20439;-73
2023/08/10 06:16:25;;;;;;;13.20;9.75;;;;;;;16.65;100.00;155594.19;5016503;28;20195;-73
2023/08/10 06:18:51;;;;;;;17.23;10.87;;;;;;;16.53;100.00;155562.94;5021427;28;20120;-73
2023/08/10 06:21:18;;;;;;;13.77;9.95;;;;;;;16.66;100.00;155598.06;5020644;28;20044;-75
2023/08/10 06:23:44;;;;;;;16.80;10.10;;;;;;;16.85;100.00;155647.50;5027108;28;20375;-75
2023/08/10 06:26:09;;;;;;;14.13;10.30;;;;;;;16.95;100.00;155673.53;5029380;28;20029;-75
2023/08/10 06:28:35;;;;;;;15.97;10.90;;;;;;;16.97;100.00;155678.72;5025848;28;20026;-75
2023/08/10 06:31:00;;;;;;;16.40;10.97;;;;;;;17.42;100.00;155794.59;5030085;28;20065;-75
2023/08/10 06:33:26;;;;;;;15.90;11.73;;;;;;;19.15;100.00;156245.31;5022830;28;20022;-76
2023/08/10 06:35:52;;;;;;;16.52;9.73;;;;;;;19.76;100.00;156405.72;5021022;28;20026;-75
2023/08/10 06:38:18;;;;;;;12.23;9.27;;;;;;;19.84;100.00;156425.28;5025330;28;20036;-74
2023/08/10 06:40:44;;;;;;;15.52;9.18;;;;;;;19.87;100.00;156433.06;5029759;28;20099;-75
2023/08/10 06:43:09;;;;;;;16.60;8.98;;;;;;;19.81;100.00;156417.44;5023505;28;20064;-75
2023/08/10 06:45:34;;;;;;;14.17;9.00;;;;;;;20.49;100.00;156594.88;5023850;28;20394;-75
2023/08/10 06:48:00;;;;;;;15.50;9.77;;;;;;;20.23;100.00;156528.31;5020016;28;20030;-75
2023/08/10 06:50:25;;;;;;;19.60;10.03;;;;;;;20.18;100.00;156514.00;5025001;28;20112;-75
2023/08/10 06:52:51;;;;;;;17.77;11.60;;;;;;;20.19;100.00;156517.91;5024077;28;20449;-75
2023/08/10 06:55:17;;;;;;;22.75;12.60;;;;;;;20.13;100.00;156500.94;5024205;28;20025;-74
2023/08/10 06:57:44;;;;;;;29.07;15.03;;;;;;;20.22;100.00;156524.44;5024782;28;20582;-74
2023/08/10 07:00:13;;;;;;;21.88;14.45;;;;;;;20.89;100.00;156699.28;5057204;28;20108;-74
2023/08/10 07:02:39;;;;;;;28.67;14.68;;;;;;;21.41;97.75;156836.38;5028957;28;20530;-74
2023/08/10 07:05:05;;;;;;;21.83;14.20;;;;;;;22.13;89.65;157023.09;5029952;28;20137;-74
2023/08/10 07:07:31;;;;;;;24.90;14.80;;;;;;;22.40;84.95;157094.97;5021543;28;20541;-74
2023/08/10 07:09:56;;;;;;;20.20;11.63;;;;;;;22.76;84.13;157187.78;5027873;28;20041;-74
2023/08/10 07:12:21;;;;;;;26.47;12.43;;;;;;;22.66;81.27;157161.66;5025153;28;20084;-75
2023/08/10 07:14:47;;;;;;;17.43;10.53;;;;;;;21.81;81.19;156940.84;5029076;28;20027;-74
2023/08/10 07:17:12;;;;;;;24.60;9.90;;;;;;;21.19;82.54;156777.63;5022925;28;20034;-73
2023/08/10 07:19:38;;;;;;;14.53;8.80;;;;;;;20.81;85.93;156678.38;5023507;28;20029;-73
2023/08/10 07:22:03;;;;;;;16.58;9.02;;;;;;;20.48;86.24;156593.53;5024260;28;20540;-73
2023/08/10 07:24:29;;;;;;;18.77;9.07;;;;;;;20.43;85.10;156579.22;5024271;28;20034;-73
2023/08/10 07:26:56;;;;;;;12.83;8.67;;;;;;;20.48;84.33;156593.53;5028060;28;20105;-73
2023/08/10 07:29:22;;;;;;;17.65;7.90;;;;;;;20.25;85.48;156533.56;5026134;28;20021;-74
2023/08/10 07:31:47;;;;;;;20.90;8.03;;;;;;;20.08;84.31;156487.91;5026637;28;20024;-75
2023/08/10 07:34:13;;;;;;;15.27;7.53;;;;;;;20.01;85.23;156469.59;5027438;28;20036;-74
2023/08/10 07:36:38;;;;;;;15.73;7.38;;;;;;;19.83;88.28;156422.63;5021530;28;20055;-75
2023/08/10 07:39:04;;;;;;;12.60;6.90;;;;;;;19.92;88.52;156446.13;5023859;28;20044;-75
2023/08/10 07:41:29;;;;;;;13.67;6.60;;;;;;;20.04;88.32;156477.41;5049816;28;20014;-75
2023/08/10 07:43:55;;;;;;;12.97;5.57;;;;;;;19.79;87.15;156412.22;5021615;28;20029;-76
2023/08/10 07:46:20;;;;;;;15.00;5.10;;;;;;;19.90;87.36;156440.91;5021247;28;20382;-74
2023/08/10 07:48:46;;;;;;;11.80;5.20;;;;;;;19.82;87.11;156420.03;5024642;28;20037;-74
2023/08/10 07:51:12;;;;;;;9.13;4.80;;;;;;;19.85;89.61;156429.16;5019834;28;20041;-74
2023/08/10 07:53:37;;;;;;;13.50;4.33;;;;;;;19.84;88.53;156425.28;5024766;28;20586;-75
2023/08/10 07:56:03;;;;;;;8.25;3.58;;;;;;;20.00;86.77;156468.28;5025831;28;20025;-75
2023/08/10 07:58:29;;;;;;;9.73;3.40;;;;;;;19.98;87.04;156463.06;5025448;28;20044;-75
2023/08/10 08:00:55;;;;;;;7.47;3.03;;;;;;;19.92;85.47;156446.13;5026317;28;20482;-75
2023/08/10 08:03:21;;;;;;;9.03;4.17;;;;;;;19.96;83.03;156456.56;5023469;28;20080;-75
2023/08/10 08:05:46;;;;;;;7.03;3.83;;;;;;;20.05;84.12;156481.31;5026378;28;20083;-75
2023/08/10 08:08:12;;;;;;;8.70;3.33;;;;;;;20.16;85.75;156508.78;5024778;28;20042;-75
2023/08/10 08:10:37;;;;;;;8.00;3.63;;;;;;;20.09;85.39;156490.50;5023687;28;20050;-75
2023/08/10 08:13:03;;;;;;;5.00;2.60;;;;;;;20.14;85.28;156504.88;5025273;28;20072;-75
2023/08/10 08:15:34;;;;;;;8.35;3.45;;;;;;;20.09;83.40;156490.50;5023921;28;20033;-75
2023/08/10 08:18:37;;;;;;;13.77;2.70;;;;;;;20.07;84.65;156485.31;5021845;28;20025;-75
2023/08/10 08:21:04;;;;;;;4.65;2.40;;;;;;;20.04;81.76;156477.41;5025528;28;20033;-75
2023/08/10 08:23:29;;;;;;;6.57;2.63;;;;;;;20.03;83.62;156474.81;5018877;28;20080;-75
2023/08/10 08:25:55;;;;;;;8.30;2.80;;;;;;;20.17;82.19;156511.38;5021765;28;20472;-75
2023/08/10 08:28:21;;;;;;;6.63;2.27;;;;;;;20.02;81.29;156473.47;5023567;28;20029;-75
2023/08/10 08:30:47;;;;;;;5.10;2.38;;;;;;;20.03;82.56;156474.81;5022443;28;20493;-75
2023/08/10 08:33:12;;;;;;;6.00;2.60;;;;;;;20.10;82.35;156494.41;5023087;28;20037;-75
2023/08/10 08:35:40;;;;;;;12.50;2.60;;;;;;;20.21;82.17;156523.09;5021511;28;20030;-74
2023/08/10 08:38:06;;;;;;;4.93;2.72;;;;;;;20.15;80.17;156506.13;5021226;28;20033;-75
2023/08/10 08:40:31;;;;;;;4.47;2.43;;;;;;;20.26;79.59;156536.16;5028550;28;20033;-73
2023/08/10 08:42:58;;;;;;;5.07;2.10;;;;;;;20.34;81.81;156555.72;5054243;28;20079;-72
2023/08/10 08:45:23;;;;;;;;;;;;;;;20.30;79.36;156545.28;5028350;28;20128;-73
2023/08/10 08:47:48;;;;;;;9.07;2.10;;;;;;;20.36;80.09;156560.94;5022001;28;20363;-71
2023/08/10 08:50:15;;;;;;;4.43;1.90;;;;;;;20.46;78.80;156587.03;5022683;28;20491;-73
2023/08/10 08:52:43;;;;;;;3.10;1.52;;;;;;;20.51;78.73;156600.06;5026890;28;20160;-72
2023/08/10 08:55:13;;;;;;;2.97;1.60;;;;;;;20.48;78.17;156592.28;5023706;28;20090;-73
2023/08/10 08:57:38;;;;;;;8.98;1.70;;;;;;;20.53;75.73;156605.28;5022724;28;20629;-72
2023/08/10 09:00:06;;;;;;;2.90;1.87;;;;;;;20.64;76.36;156635.31;5026509;28;20040;-74
2023/08/10 09:02:32;;;;;;;4.53;1.80;;;;;;;20.69;77.39;156647.03;5022716;28;20569;-73
2023/08/10 09:04:59;;;;;;;4.73;1.93;;;;;;;20.68;77.17;156644.41;5041446;28;20052;-72
2023/08/10 09:07:29;;;;;;;3.92;2.83;;;;;;;20.81;77.73;156678.38;5017896;28;20128;-72
2023/08/10 09:09:55;;;;;;;7.03;2.08;;;;;;;21.03;80.13;156735.84;5023729;28;20037;-73
2023/08/10 09:12:35;;;;;;;8.98;2.10;;;;;;;21.09;76.36;156751.50;5018712;28;20128;-74
2023/08/10 09:15:05;;;;;;;6.47;2.00;;;;;;;21.04;74.94;156738.44;5022993;28;20029;-74
2023/08/10 09:17:32;;;;;;;4.50;2.22;;;;;;;21.01;75.54;156730.59;5022682;28;20036;-72
2023/08/10 09:19:58;;;;;;;2.88;1.98;;;;;;;21.13;76.05;156761.97;5023300;28;20129;-72
2023/08/10 09:22:27;;;;;;;11.90;2.13;;;;;;;21.44;77.35;156844.16;5024821;28;20109;-72
2023/08/10 09:24:53;;;;;;;2.75;1.58;;;;;;;21.48;77.74;156853.31;5021804;28;20065;-73
2023/08/10 09:27:18;;;;;;;7.80;2.07;;;;;;;21.63;75.81;156893.81;5022405;28;20251;-72
2023/08/10 09:29:45;;;;;;;5.90;1.97;;;;;;;21.69;76.87;156908.19;5020677;28;20025;-71
2023/08/10 09:32:17;;;;;;;5.80;2.45;;;;;;;21.68;74.77;156906.91;5025540;28;20032;-72
2023/08/10 09:34:46;;;;;;;5.32;2.05;;;;;;;21.83;74.83;156944.78;5023413;28;20490;-72
2023/08/10 09:37:12;;;;;;;7.57;2.20;;;;;;;21.97;74.04;156981.31;5025183;28;20030;-73
2023/08/10 09:39:38;;;;;;;5.07;1.70;;;;;;;21.96;73.22;156978.72;5025666;28;20022;-72
2023/08/10 09:42:03;;;;;;;5.47;1.97;;;;;;;22.02;75.31;156994.38;5024137;28;20037;-72
2023/08/10 09:44:49;;;;;;;5.67;2.77;;;;;;;22.14;73.21;157025.75;5027905;28;20033;-72
2023/08/10 09:47:15;;;;;;;2.25;1.90;;;;;;;22.14;72.46;157025.75;5019136;28;20440;-72
2023/08/10 09:50:00;;;;;;;3.53;2.25;;;;;;;22.47;72.50;157112.03;5017798;28;20032;-74
2023/08/10 09:52:26;;;;;;;6.38;2.15;;;;;;;22.63;75.97;157153.84;5021666;28;20033;-74
2023/08/10 09:54:54;;;;;;;4.75;1.80;;;;;;;22.67;71.18;157165.56;5018749;28;20100;-75
2023/08/10 09:57:20;;;;;;;5.60;2.38;;;;;;;22.92;71.35;157229.59;5020557;28;20494;-74
2023/08/10 09:59:47;;;;;;;2.95;1.67;;;;;;;22.88;72.51;157220.47;5026348;28;20431;-74
2023/08/10 10:02:14;;;;;;;4.75;2.03;;;;;;;23.00;71.52;157250.53;5025830;28;20079;-74
2023/08/10 10:04:44;;;;;;;5.47;2.30;;;;;;;22.94;70.50;157234.88;5029865;28;20634;-74
2023/08/10 10:07:13;;;;;;;5.60;1.83;;;;;;;23.09;70.53;157274.03;5027387;28;20030;-74
2023/08/10 10:09:43;;;;;;;3.35;2.03;;;;;;;22.97;69.64;157242.69;5027150;28;20021;-74
2023/08/10 10:12:13;;;;;;;5.70;2.10;;;;;;;23.10;69.22;157277.97;5024792;28;20088;-75
2023/08/10 10:14:48;;;;;;;7.95;1.70;;;;;;;23.22;69.43;157308.09;5026565;28;20044;-74
2023/08/10 10:17:17;;;;;;;6.30;2.15;;;;;;;23.48;68.90;157377.38;5024075;28;20095;-74
2023/08/10 10:19:44;;;;;;;4.70;1.83;;;;;;;23.65;67.28;157421.84;5023661;28;20061;-74
2023/08/10 10:22:13;;;;;;;7.95;2.28;;;;;;;23.73;65.92;157442.75;5019996;28;20376;-74
2023/08/10 10:24:41;;;;;;;6.30;2.00;;;;;;;23.96;67.68;157502.94;5018295;28;20489;-74
2023/08/10 10:27:15;;;;;;;8.35;2.20;;;;;;;24.22;67.39;157569.69;5026324;28;20064;-74
2023/08/10 10:29:56;;;;;;;4.90;1.92;;;;;;;24.08;62.66;157533.06;5025942;28;20362;-74
2023/08/10 10:32:22;;;;;;;4.20;2.13;;;;;;;23.81;63.71;157462.38;5028504;28;20807;-74
2023/08/10 10:34:52;;;;;;;6.70;2.95;;;;;;;24.09;65.81;157535.66;5024055;28;20052;-74
2023/08/10 10:37:28;;;;;;;15.13;1.92;;;;;;;24.43;66.60;157624.66;5025000;28;20587;-74
2023/08/10 10:40:13;;;;;;;7.60;2.35;;;;;;;24.60;66.86;157669.16;5022888;28;20063;-74
2023/08/10 10:43:04;;;;;;;3.42;2.20;;;;;;;25.05;62.67;157786.94;5026845;28;20029;-74
2023/08/10 10:45:40;;;;;;;7.55;2.30;;;;;;;25.19;60.81;157824.88;5026201;28;20064;-73
2023/08/10 10:48:06;;;;;;;3.20;2.10;;;;;;;25.33;61.21;157861.59;5023981;28;20029;-73
2023/08/10 10:50:33;;;;;;;9.23;2.25;;;;;;;25.42;59.33;157883.84;5023067;28;20037;-74
2023/08/10 10:53:00;;;;;;;;;;;;;;;25.40;62.06;157878.63;5024492;28;20451;-74
2023/08/10 10:55:35;;;;;;;4.28;2.17;;;;;;;25.60;61.11;157931.03;5027808;28;19917;-74
2023/08/10 10:58:03;;;;;;;3.45;2.60;;;;;;;25.38;58.04;157873.38;5027366;28;20521;-74
2023/08/10 11:00:29;;;;;;;7.40;2.85;;;;;;;25.17;57.61;157819.66;5023221;28;20033;-74
2023/08/10 11:02:55;;;;;;;3.53;2.40;;;;;;;25.10;59.49;157800.03;5026354;28;20516;-74
2023/08/10 11:05:21;;;;;;;4.80;2.70;;;;;;;25.02;60.18;157779.09;5020923;28;20037;-74
2023/08/10 11:07:48;;;;;;;4.07;2.10;;;;;;;25.35;61.09;157865.53;5021721;28;20100;-74
2023/08/10 11:10:16;;;;;;;5.53;3.55;;;;;;;25.61;61.28;157933.63;5021643;28;20054;-74
2023/08/10 11:12:43;;;;;;;4.40;2.28;;;;;;;25.58;61.00;157927.09;5023285;28;20032;-74
2023/08/10 11:15:12;;;;;;;3.85;2.13;;;;;;;26.02;59.78;158042.38;5022299;28;20029;-74
2023/08/10 11:17:39;;;;;;;7.35;2.75;;;;;;;25.90;60.55;158010.91;5019761;28;20108;-74
2023/08/10 11:20:11;;;;;;;4.20;2.33;;;;;;;25.76;59.54;157972.94;5021937;28;20491;-73
2023/08/10 11:22:38;;;;;;;4.95;2.58;;;;;;;25.93;58.75;158017.50;5021935;28;20029;-74